Lincoln, KS (67455)

4:03 AM CDT on August 28, 2015 (GMT -0500)
Rural Lincoln County | | Change Station
CLOSE
Current Station
Personal Weather Station
Location: Lincoln, KS
Elevation: 1631 ft
Nearby Weather Stations

Elev 1631 ft 38.94 °N, 98.27 °W | Updated 10 seconds ago

Rain
Rain
75.9 °F
Feels Like 77 °F
N
17.4
Wind Variable Wind from SSW
Gusts 19.9 mph

Today
High -- | Low -- °F
--% Chance of Precip.
Yesterday
High -- | Low -- °F
Precip. -- in
6:57 AM 8:09 PM
Waxing Gibbous, 97% visible
Pressure 29.83 in
Visibility 10.0 miles
Clouds Mostly Cloudy 11000 ft
Heat Index 77 °F
Dew Point 70 °F
Humidity 82%
Rainfall 0.00 in
Snow Depth Not available.
UV 0.0 out of 12
Pollen 10.30 out of 12
Air Quality Not available.
Flu Activity Not available.
METAR KSLN 280853Z AUTO 16012KT 10SM BKN110 24/19 A2987 RMK AO2 LTG DSNT N RAB02E28 SLP101 P0001 60001 T02390194 58013
Pressure 29.83 in
Visibility 10.0 miles
Clouds Mostly Cloudy 11000 ft
Heat Index 77 °F
Dew Point 70 °F
Humidity 82%
Rainfall 0.00 in
Snow Depth Not available.
UV 0.0 out of 12
Pollen 10.30 out of 12
Air Quality Not available.
Flu Activity Not available.
METAR KSLN 280853Z AUTO 16012KT 10SM BKN110 24/19 A2987 RMK AO2 LTG DSNT N RAB02E28 SLP101 P0001 60001 T02390194 58013

10-Day Weather Forecast

×

Almanac

Astronomy

Aug. 28, 2015 Rise Set
Actual Time
Civil Twilight
Nautical Twilight
Astronomical Twilight
Moon
Length of Visible Light
Length of Day
Tomorrow will be .
, % of the Moon is Illuminated

Today's Extremes

State Highs State Lows

Community

WunderPhotos

Upload Photos

1,850,355 photos uploaded!

WunderBlogs® & News

Nearby

Air Quality

  Air Quality AQ Index Pollutant
Not available.

Snow Depth

Station Depth Elevation

Earthquake Activity

City Distance Mag. Time & Date
Minimum magnitude displayed is 2.5.

Coastal Water Temperatures

Place Temperature

Stations

Nearby Weather Stations

Station Location Temp. Windchill Dew Point Humidity Wind Precip. Elev Updated Type